Time;durP1;ratioP1;P1;durP2;ratioP2;P2;SDS_P1;SDS_P2;PMS_P1;PMS_P2;Temp;Humidity;BMP_temperature;BMP_pressure;BME280_temperature;BME280_humidity;BME280_pressure;Samples;Min_cycle;Max_cycle;Signal;HPM_P1;HPM_P2
2023/07/20 00:01:46;;;;;;;1.90;0.50;;;;;;;;;;5085175;28;20044;-74
2023/07/20 00:04:16;;;;;;;1.92;0.50;;;;;;;;;;5083939;28;20763;-74
2023/07/20 00:06:47;;;;;;;5.03;0.68;;;;;;;;;;5085095;28;20047;-74
2023/07/20 00:09:17;;;;;;;1.88;0.50;;;;;;;;;;5084505;28;20051;-74
2023/07/20 00:11:51;;;;;;;5.07;0.60;;;;;;;;;;5084928;28;20040;-74
2023/07/20 00:14:22;;;;;;;8.07;0.68;;;;;;;;;;5085563;28;20509;-74
2023/07/20 00:16:56;;;;;;;1.67;1.00;;;;;;;;;;5085427;28;20379;-75
2023/07/20 00:19:28;;;;;;;3.83;0.65;;;;;;;;;;5085399;28;20051;-74
2023/07/20 00:21:59;;;;;;;7.43;1.00;;;;;;;;;;5085233;28;20044;-74
2023/07/20 00:24:30;;;;;;;1.50;0.50;;;;;;;;;;5084145;28;20044;-75
2023/07/20 00:27:02;;;;;;;5.05;0.70;;;;;;;;;;5085157;28;20044;-74
2023/07/20 00:29:33;;;;;;;3.25;0.80;;;;;;;;;;5084930;28;20051;-74
2023/07/20 00:32:07;;;;;;;2.90;1.55;;;;;;;;;;5082997;28;20055;-74
2023/07/20 00:34:37;;;;;;;5.50;1.23;;;;;;;;;;5051406;28;20070;-75
2023/07/20 00:37:09;;;;;;;3.72;0.93;;;;;;;;;;5082776;28;20048;-74
2023/07/20 00:39:40;;;;;;;2.80;0.88;;;;;;;;;;5083133;28;20060;-74
2023/07/20 00:42:10;;;;;;;3.90;0.60;;;;;;;;;;5084494;28;20450;-74
2023/07/20 00:44:40;;;;;;;4.10;0.60;;;;;;;;;;5084776;28;20056;-74
2023/07/20 00:47:12;;;;;;;8.00;2.22;;;;;;;;;;5084728;28;20048;-74
2023/07/20 00:49:43;;;;;;;3.80;0.80;;;;;;;;;;5084128;28;20422;-74
2023/07/20 00:52:15;;;;;;;2.70;1.02;;;;;;;;;;5083586;28;20059;-74
2023/07/20 00:54:45;;;;;;;1.90;0.70;;;;;;;;;;5083356;28;20040;-74
2023/07/20 00:57:18;;;;;;;2.67;1.08;;;;;;;;;;5083917;28;20106;-74
2023/07/20 00:59:50;;;;;;;2.60;0.60;;;;;;;;;;5083311;28;20406;-74
2023/07/20 01:02:21;;;;;;;3.55;0.45;;;;;;;;;;5085005;28;20048;-74
2023/07/20 01:07:55;;;;;;;2.03;0.57;;;;;;;;;;5083062;28;20829;-74
2023/07/20 01:10:35;;;;;;;1.88;0.80;;;;;;;;;;5083862;28;20051;-73
2023/07/20 01:13:09;;;;;;;2.88;0.70;;;;;;;;;;5082113;28;20055;-74
2023/07/20 01:15:40;;;;;;;1.02;0.35;;;;;;;;;;5084078;28;20051;-74
2023/07/20 01:18:09;;;;;;;;;;;;;;;;;;5084798;28;20044;-74
2023/07/20 01:20:40;;;;;;;1.95;0.70;;;;;;;;;;5085359;28;19927;-74
2023/07/20 01:24:07;;;;;;;2.05;0.90;;;;;;;;;;5082920;28;20075;-74
2023/07/20 01:26:59;;;;;;;2.25;0.45;;;;;;;;;;5083486;28;20541;-74
2023/07/20 01:30:06;;;;;;;2.40;0.65;;;;;;;;;;5084162;28;20047;-74
2023/07/20 01:32:39;;;;;;;3.58;0.93;;;;;;;;;;5084708;28;20051;-74
2023/07/20 01:35:16;;;;;;;3.03;0.85;;;;;;;;;;5083325;28;20048;-74
2023/07/20 01:37:48;;;;;;;2.47;0.57;;;;;;;;;;5084655;28;20060;-73
2023/07/20 01:40:22;;;;;;;5.55;0.70;;;;;;;;;;5083196;28;20406;-74
2023/07/20 01:42:54;;;;;;;0.93;0.43;;;;;;;;;;5084287;28;20063;-73
2023/07/20 01:45:25;;;;;;;3.72;0.30;;;;;;;;;;5082608;28;20401;-73
2023/07/20 01:47:56;;;;;;;2.45;0.52;;;;;;;;;;5082617;28;20544;-73
2023/07/20 01:50:27;;;;;;;3.60;0.60;;;;;;;;;;5087854;28;20058;-73
2023/07/20 01:52:59;;;;;;;2.22;0.40;;;;;;;;;;5085636;28;20056;-73
2023/07/20 01:55:30;;;;;;;0.75;0.30;;;;;;;;;;5088052;28;20048;-73
2023/07/20 01:58:01;;;;;;;1.85;0.45;;;;;;;;;;5085916;28;20052;-73
2023/07/20 02:00:32;;;;;;;2.42;0.40;;;;;;;;;;5086327;28;20048;-74
2023/07/20 02:03:02;;;;;;;1.45;0.45;;;;;;;;;;5088026;28;20048;-74
2023/07/20 02:05:34;;;;;;;2.20;0.43;;;;;;;;;;5086181;28;20059;-73
2023/07/20 02:08:05;;;;;;;5.70;0.70;;;;;;;;;;5085583;28;20395;-73
2023/07/20 02:10:37;;;;;;;1.77;0.35;;;;;;;;;;5088337;28;20055;-74
2023/07/20 02:13:07;;;;;;;3.88;0.45;;;;;;;;;;5085502;28;20533;-73
2023/07/20 02:15:38;;;;;;;4.32;0.63;;;;;;;;;;5087506;28;20047;-73
2023/07/20 02:18:09;;;;;;;2.10;0.63;;;;;;;;;;5085098;28;20051;-73
2023/07/20 02:20:40;;;;;;;5.53;0.60;;;;;;;;;;5084896;28;20052;-73
2023/07/20 02:23:11;;;;;;;4.65;0.60;;;;;;;;;;5087844;28;20040;-73
2023/07/20 02:25:42;;;;;;;6.53;0.60;;;;;;;;;;5085357;28;20548;-73
2023/07/20 02:28:15;;;;;;;5.53;0.80;;;;;;;;;;5086144;28;20044;-73
2023/07/20 02:30:45;;;;;;;6.82;0.55;;;;;;;;;;5085881;28;20071;-74
2023/07/20 02:33:15;;;;;;;2.45;0.55;;;;;;;;;;5087197;28;20062;-73
2023/07/20 02:35:46;;;;;;;1.63;0.60;;;;;;;;;;5087469;28;20044;-73
2023/07/20 02:38:19;;;;;;;1.75;0.40;;;;;;;;;;5086901;28;20048;-74
2023/07/20 02:40:51;;;;;;;0.75;0.32;;;;;;;;;;5086616;28;20057;-73
2023/07/20 02:43:22;;;;;;;2.92;0.50;;;;;;;;;;5087193;28;20048;-74
2023/07/20 02:45:51;;;;;;;;;;;;;;;;;;5085990;28;20052;-73
2023/07/20 02:48:22;;;;;;;3.60;0.47;;;;;;;;;;5085792;28;20428;-73
2023/07/20 02:50:52;;;;;;;;;;;;;;;;;;5087009;28;20044;-73
2023/07/20 02:53:22;;;;;;;2.22;0.40;;;;;;;;;;5087233;28;19927;-73
2023/07/20 02:55:53;;;;;;;2.92;0.35;;;;;;;;;;5086875;28;20406;-73
2023/07/20 02:58:24;;;;;;;3.85;0.60;;;;;;;;;;5086914;28;20055;-74
2023/07/20 03:00:55;;;;;;;1.77;0.35;;;;;;;;;;5086846;28;20055;-73
2023/07/20 03:03:25;;;;;;;1.30;0.30;;;;;;;;;;5084710;28;20059;-74
2023/07/20 03:05:59;;;;;;;2.63;0.50;;;;;;;;;;5084661;28;20048;-73
2023/07/20 03:08:29;;;;;;;3.97;0.55;;;;;;;;;;5084440;28;20537;-74
2023/07/20 03:11:00;;;;;;;2.20;0.40;;;;;;;;;;5086741;28;20055;-74
2023/07/20 03:13:32;;;;;;;1.27;0.57;;;;;;;;;;5086565;28;20052;-74
2023/07/20 03:16:02;;;;;;;2.13;0.43;;;;;;;;;;5084892;28;20609;-74
2023/07/20 03:18:32;;;;;;;3.00;0.40;;;;;;;;;;5083814;28;20056;-74
2023/07/20 03:21:02;;;;;;;;;;;;;;;;;;5087191;28;20048;-74
2023/07/20 03:23:33;;;;;;;0.85;0.55;;;;;;;;;;5085986;28;19932;-74
2023/07/20 03:26:02;;;;;;;5.22;0.70;;;;;;;;;;5086533;28;20036;-74
2023/07/20 03:28:38;;;;;;;1.52;0.30;;;;;;;;;;5067580;28;20052;-74
2023/07/20 03:31:10;;;;;;;5.40;0.40;;;;;;;;;;5084325;28;20725;-74
2023/07/20 03:33:42;;;;;;;5.32;0.40;;;;;;;;;;5084599;28;20067;-73
2023/07/20 03:36:13;;;;;;;0.82;0.30;;;;;;;;;;5084328;28;20059;-74
2023/07/20 03:38:44;;;;;;;3.80;0.55;;;;;;;;;;5083951;28;20051;-73
2023/07/20 03:41:16;;;;;;;5.22;0.80;;;;;;;;;;5084225;28;20048;-73
2023/07/20 03:43:47;;;;;;;4.28;0.60;;;;;;;;;;5084029;28;20067;-73
2023/07/20 03:46:18;;;;;;;1.45;0.35;;;;;;;;;;5084628;28;20079;-73
2023/07/20 03:48:49;;;;;;;1.85;0.40;;;;;;;;;;5085986;28;20063;-73
2023/07/20 03:51:19;;;;;;;3.83;0.38;;;;;;;;;;5085326;28;20044;-73
2023/07/20 03:53:50;;;;;;;3.75;0.70;;;;;;;;;;5066575;28;20059;-73
2023/07/20 03:56:20;;;;;;;2.67;0.47;;;;;;;;;;5085833;28;20051;-73
2023/07/20 03:58:51;;;;;;;1.27;0.40;;;;;;;;;;5084394;28;20047;-73
2023/07/20 04:01:21;;;;;;;;;;;;;;;;;;5085943;28;20442;-74
2023/07/20 04:03:51;;;;;;;1.20;0.30;;;;;;;;;;5085485;28;19927;-73
2023/07/20 04:06:22;;;;;;;2.22;0.40;;;;;;;;;;5083473;28;20055;-74
2023/07/20 04:08:53;;;;;;;2.30;0.40;;;;;;;;;;5083654;28;20417;-73
2023/07/20 04:11:23;;;;;;;2.58;0.80;;;;;;;;;;5084533;28;20044;-73
2023/07/20 04:13:56;;;;;;;2.85;0.50;;;;;;;;;;5083437;28;20052;-73
2023/07/20 04:16:27;;;;;;;3.83;0.40;;;;;;;;;;5083889;28;20525;-73
2023/07/20 04:18:58;;;;;;;2.65;0.30;;;;;;;;;;5084697;28;20122;-73
2023/07/20 04:21:28;;;;;;;4.47;0.52;;;;;;;;;;5083691;28;20499;-73
2023/07/20 04:23:59;;;;;;;1.30;0.60;;;;;;;;;;5084310;28;20059;-73
2023/07/20 04:26:29;;;;;;;1.45;0.43;;;;;;;;;;5082947;28;20064;-73
2023/07/20 04:29:00;;;;;;;4.00;0.60;;;;;;;;;;5083372;28;20422;-74
2023/07/20 04:31:36;;;;;;;2.30;0.40;;;;;;;;;;5082876;28;20062;-73
2023/07/20 04:34:07;;;;;;;0.77;0.50;;;;;;;;;;5081543;28;20064;-73
2023/07/20 04:36:38;;;;;;;3.03;0.63;;;;;;;;;;5082771;28;20970;-73
2023/07/20 04:39:10;;;;;;;1.70;0.60;;;;;;;;;;5083209;28;20052;-73
2023/07/20 04:42:01;;;;;;;0.52;0.50;;;;;;;;;;5083385;28;20059;-73
2023/07/20 04:44:32;;;;;;;2.63;0.60;;;;;;;;;;5083296;28;20048;-73
2023/07/20 04:47:04;;;;;;;1.83;0.60;;;;;;;;;;5083465;28;20514;-73
2023/07/20 04:49:39;;;;;;;2.67;0.50;;;;;;;;;;5083132;28;20434;-73
2023/07/20 04:52:10;;;;;;;3.08;0.60;;;;;;;;;;5084626;28;20055;-73
2023/07/20 04:54:40;;;;;;;1.95;0.60;;;;;;;;;;5085291;28;20517;-73
2023/07/20 04:57:13;;;;;;;1.42;0.93;;;;;;;;;;5083173;28;20530;-73
2023/07/20 04:59:48;;;;;;;2.05;0.70;;;;;;;;;;5082823;28;20525;-73
2023/07/20 05:02:19;;;;;;;2.20;0.68;;;;;;;;;;5082328;28;20056;-73
2023/07/20 05:04:50;;;;;;;4.88;0.70;;;;;;;;;;5084565;28;20056;-73
2023/07/20 05:07:21;;;;;;;2.88;0.70;;;;;;;;;;5083296;28;20437;-73
2023/07/20 05:09:52;;;;;;;3.60;0.60;;;;;;;;;;5085083;28;20047;-73
2023/07/20 05:12:23;;;;;;;2.90;0.68;;;;;;;;;;5083244;28;20052;-73
2023/07/20 05:14:53;;;;;;;3.72;0.70;;;;;;;;;;5082785;28;20063;-73
2023/07/20 05:17:24;;;;;;;1.27;0.80;;;;;;;;;;5082457;28;20052;-73
2023/07/20 05:19:56;;;;;;;1.73;0.80;;;;;;;;;;5082685;28;20055;-73
2023/07/20 05:22:27;;;;;;;6.25;1.48;;;;;;;;;;5082780;28;20047;-73
2023/07/20 05:24:57;;;;;;;0.75;0.70;;;;;;;;;;5086895;28;20052;-73
2023/07/20 05:27:27;;;;;;;1.85;0.70;;;;;;;;;;5088619;28;20048;-73
2023/07/20 05:29:57;;;;;;;;;;;;;;;;;;5089033;28;20048;-73
2023/07/20 05:32:28;;;;;;;1.92;0.52;;;;;;;;;;5086819;28;20386;-73
2023/07/20 05:34:58;;;;;;;1.10;0.73;;;;;;;;;;5088195;28;20051;-73
2023/07/20 05:37:30;;;;;;;0.80;0.77;;;;;;;;;;5088242;28;20051;-73
2023/07/20 05:40:00;;;;;;;;;;;;;;;;;;5088622;28;20456;-73
2023/07/20 05:42:30;;;;;;;1.33;0.77;;;;;;;;;;5088198;28;19924;-73
2023/07/20 05:45:01;;;;;;;5.03;1.00;;;;;;;;;;5088636;28;20064;-73
2023/07/20 05:47:32;;;;;;;2.80;0.70;;;;;;;;;;5088173;28;20048;-73
2023/07/20 05:50:04;;;;;;;1.92;1.00;;;;;;;;;;5087972;28;20066;-73
2023/07/20 05:52:33;;;;;;;3.70;1.15;;;;;;;;;;5087606;28;20048;-73
2023/07/20 05:55:04;;;;;;;0.98;0.80;;;;;;;;;;5088247;28;20052;-73
2023/07/20 05:57:39;;;;;;;3.10;0.70;;;;;;;;;;5088012;28;20044;-73
2023/07/20 06:00:12;;;;;;;1.33;0.80;;;;;;;;;;5088028;28;20425;-73
2023/07/20 06:02:44;;;;;;;4.15;1.48;;;;;;;;;;5088251;28;20075;-73
2023/07/20 06:05:15;;;;;;;3.72;1.58;;;;;;;;;;5087611;28;20052;-73
2023/07/20 06:07:45;;;;;;;1.67;0.80;;;;;;;;;;5087718;28;20048;-73
2023/07/20 06:10:16;;;;;;;2.80;0.80;;;;;;;;;;5086599;28;20592;-73
2023/07/20 06:12:46;;;;;;;0.77;0.77;;;;;;;;;;5087442;28;20398;-73
2023/07/20 06:15:28;;;;;;;1.92;0.80;;;;;;;;;;5087697;28;20502;-73
2023/07/20 06:17:59;;;;;;;;;;;;;;;;;;5088114;28;20040;-73
2023/07/20 06:20:29;;;;;;;1.38;0.75;;;;;;;;;;5087306;28;19924;-73
2023/07/20 06:22:59;;;;;;;3.10;0.73;;;;;;;;;;5087363;28;20048;-73
2023/07/20 06:25:30;;;;;;;1.58;0.95;;;;;;;;;;5087053;28;20052;-73
2023/07/20 06:28:04;;;;;;;2.88;0.75;;;;;;;;;;5085712;28;20063;-73
2023/07/20 06:30:34;;;;;;;2.78;0.70;;;;;;;;;;5086998;28;20055;-73
2023/07/20 06:33:05;;;;;;;1.08;0.90;;;;;;;;;;5085334;28;20514;-73
2023/07/20 06:35:35;;;;;;;2.58;0.85;;;;;;;;;;5086827;28;20043;-73
2023/07/20 06:38:08;;;;;;;1.40;0.80;;;;;;;;;;5086762;28;20059;-73
2023/07/20 06:40:41;;;;;;;1.60;0.80;;;;;;;;;;5087348;28;20087;-73
2023/07/20 06:43:12;;;;;;;1.77;0.70;;;;;;;;;;5086923;28;20063;-73
2023/07/20 06:45:44;;;;;;;1.30;0.50;;;;;;;;;;5085962;28;20043;-73
2023/07/20 06:48:15;;;;;;;2.10;0.90;;;;;;;;;;5087409;28;20055;-73
2023/07/20 06:50:46;;;;;;;1.50;0.68;;;;;;;;;;5085792;28;20052;-74
2023/07/20 06:53:17;;;;;;;1.27;0.77;;;;;;;;;;5086987;28;20043;-73
2023/07/20 06:55:48;;;;;;;3.22;0.70;;;;;;;;;;5086156;28;20529;-73
2023/07/20 06:58:21;;;;;;;1.33;0.70;;;;;;;;;;5086629;28;20044;-73
2023/07/20 07:00:52;;;;;;;1.05;0.70;;;;;;;;;;5086830;28;20048;-74
2023/07/20 07:03:22;;;;;;;0.80;0.63;;;;;;;;;;5086468;28;20040;-73
2023/07/20 07:05:56;;;;;;;2.88;0.60;;;;;;;;;;5085066;28;20620;-73
2023/07/20 07:08:27;;;;;;;1.85;0.60;;;;;;;;;;5086822;28;20051;-73
2023/07/20 07:10:58;;;;;;;1.65;0.60;;;;;;;;;;5086514;28;20043;-73
2023/07/20 07:13:30;;;;;;;1.38;0.60;;;;;;;;;;5087118;28;20063;-73
2023/07/20 07:16:00;;;;;;;1.85;0.50;;;;;;;;;;5085966;28;20062;-73
2023/07/20 07:18:31;;;;;;;1.52;0.60;;;;;;;;;;5086585;28;20097;-73
2023/07/20 07:21:04;;;;;;;0.50;0.47;;;;;;;;;;5084424;28;20435;-73
2023/07/20 07:23:34;;;;;;;0.65;0.57;;;;;;;;;;5085607;28;20052;-73
2023/07/20 07:26:05;;;;;;;1.15;0.68;;;;;;;;;;5086562;28;20417;-73
2023/07/20 07:28:37;;;;;;;1.60;0.50;;;;;;;;;;5084681;28;20529;-73
2023/07/20 07:31:09;;;;;;;0.38;0.38;;;;;;;;;;5086314;28;20050;-73
2023/07/20 07:33:39;;;;;;;0.60;0.40;;;;;;;;;;5085645;28;20052;-73
2023/07/20 07:36:09;;;;;;;2.22;0.60;;;;;;;;;;5085950;28;20059;-73
2023/07/20 07:38:39;;;;;;;0.40;0.40;;;;;;;;;;5086064;28;20048;-73
2023/07/20 07:41:37;;;;;;;1.23;0.50;;;;;;;;;;5086247;28;20043;-73
2023/07/20 07:44:07;;;;;;;1.13;0.40;;;;;;;;;;5085701;28;20056;-73
2023/07/20 07:46:37;;;;;;;2.05;0.50;;;;;;;;;;5084762;28;20054;-73
2023/07/20 07:49:07;;;;;;;0.80;0.40;;;;;;;;;;5085571;28;20052;-73
2023/07/20 07:51:38;;;;;;;0.70;0.35;;;;;;;;;;5085944;28;20040;-73
2023/07/20 07:54:12;;;;;;;0.73;0.50;;;;;;;;;;5085982;28;20510;-73
2023/07/20 07:56:44;;;;;;;0.60;0.32;;;;;;;;;;5084636;28;20059;-73
2023/07/20 07:59:14;;;;;;;0.38;0.30;;;;;;;;;;5085688;28;20502;-73
2023/07/20 08:01:45;;;;;;;0.20;0.20;;;;;;;;;;5084370;28;20052;-73
2023/07/20 08:04:17;;;;;;;0.77;0.50;;;;;;;;;;5085361;28;20050;-73
2023/07/20 08:06:48;;;;;;;0.60;0.40;;;;;;;;;;5085765;28;20067;-73
2023/07/20 08:09:17;;;;;;;0.45;0.32;;;;;;;;;;5083681;28;20055;-73
2023/07/20 08:11:49;;;;;;;0.35;0.30;;;;;;;;;;5085915;28;20051;-73
2023/07/20 08:14:20;;;;;;;2.53;0.60;;;;;;;;;;5085186;28;20525;-73
2023/07/20 08:16:50;;;;;;;0.30;0.30;;;;;;;;;;5085384;28;20047;-73
2023/07/20 08:19:20;;;;;;;0.60;0.40;;;;;;;;;;5085371;28;20043;-73
2023/07/20 08:21:52;;;;;;;0.57;0.40;;;;;;;;;;5085491;28;20052;-73
2023/07/20 08:24:22;;;;;;;0.20;0.20;;;;;;;;;;5085722;28;20044;-73
2023/07/20 08:26:52;;;;;;;0.82;0.57;;;;;;;;;;5084880;28;20054;-73
2023/07/20 08:29:24;;;;;;;0.40;0.30;;;;;;;;;;5085533;28;20056;-73
2023/07/20 08:31:54;;;;;;;1.77;0.35;;;;;;;;;;5085117;28;20489;-73
2023/07/20 08:34:25;;;;;;;1.10;0.30;;;;;;;;;;5084809;28;20055;-74
2023/07/20 08:37:00;;;;;;;0.75;0.30;;;;;;;;;;5085275;28;20051;-73
2023/07/20 08:39:30;;;;;;;0.47;0.32;;;;;;;;;;5085381;28;20047;-73
2023/07/20 08:42:06;;;;;;;0.50;0.35;;;;;;;;;;5085046;28;20090;-73
2023/07/20 08:44:40;;;;;;;;;;;;;;;;;;5085292;28;20063;-73
2023/07/20 08:47:12;;;;;;;0.25;0.25;;;;;;;;;;5084809;28;20394;-73
2023/07/20 08:49:42;;;;;;;0.63;0.35;;;;;;;;;;5084724;28;20044;-73
2023/07/20 08:52:13;;;;;;;1.13;0.20;;;;;;;;;;5085113;28;20052;-73
2023/07/20 08:54:46;;;;;;;1.80;0.30;;;;;;;;;;5085586;28;20060;-73
2023/07/20 08:57:18;;;;;;;0.68;0.40;;;;;;;;;;5085894;28;20966;-74
2023/07/20 08:59:52;;;;;;;1.10;0.30;;;;;;;;;;5089248;28;20414;-73
2023/07/20 09:02:28;;;;;;;2.42;0.40;;;;;;;;;;5088542;28;20043;-75
2023/07/20 09:04:59;;;;;;;0.77;0.40;;;;;;;;;;5088804;28;20051;-73
2023/07/20 09:07:29;;;;;;;0.52;0.47;;;;;;;;;;5088661;28;20071;-74
2023/07/20 09:09:59;;;;;;;0.73;0.52;;;;;;;;;;5088933;28;20047;-74
2023/07/20 09:12:30;;;;;;;0.20;0.20;;;;;;;;;;5088947;28;20048;-73
2023/07/20 09:15:01;;;;;;;0.80;0.40;;;;;;;;;;5089218;28;20040;-73
2023/07/20 09:17:31;;;;;;;1.65;0.30;;;;;;;;;;5088863;28;20052;-73
2023/07/20 09:20:16;;;;;;;4.25;0.40;;;;;;;;;;5088810;28;20063;-73
2023/07/20 09:22:52;;;;;;;5.50;0.60;;;;;;;;;;5088507;28;20040;-73
2023/07/20 09:25:24;;;;;;;0.95;0.38;;;;;;;;;;5088882;28;20036;-73
2023/07/20 09:28:04;;;;;;;0.90;0.50;;;;;;;;;;5088609;28;20047;-74
2023/07/20 09:30:34;;;;;;;0.55;0.30;;;;;;;;;;5088772;28;20416;-74
2023/07/20 09:33:20;;;;;;;0.20;0.20;;;;;;;;;;5088423;28;20510;-74
2023/07/20 09:35:54;;;;;;;1.10;0.50;;;;;;;;;;5088169;28;20052;-73
2023/07/20 09:38:33;;;;;;;5.65;0.40;;;;;;;;;;5088095;28;20490;-73
2023/07/20 09:41:25;;;;;;;0.35;0.20;;;;;;;;;;5087102;28;20071;-74
2023/07/20 09:43:59;;;;;;;0.20;0.20;;;;;;;;;;5087889;28;20628;-73
2023/07/20 09:46:44;;;;;;;0.50;0.50;;;;;;;;;;5088368;28;20056;-74
2023/07/20 09:49:18;;;;;;;1.27;0.43;;;;;;;;;;5088174;28;20071;-74
2023/07/20 09:51:54;;;;;;;0.28;0.28;;;;;;;;;;5087724;28;20052;-73
2023/07/20 09:54:27;;;;;;;2.53;0.25;;;;;;;;;;5087725;28;20048;-73
2023/07/20 09:56:59;;;;;;;1.02;0.20;;;;;;;;;;5088309;28;20422;-77
2023/07/20 09:59:30;;;;;;;0.30;0.30;;;;;;;;;;5088096;28;20044;-74
2023/07/20 10:02:03;;;;;;;1.13;0.20;;;;;;;;;;5087695;28;20048;-74
2023/07/20 10:04:36;;;;;;;2.33;0.30;;;;;;;;;;5086082;28;20059;-76
2023/07/20 10:07:14;;;;;;;0.43;0.25;;;;;;;;;;5088023;28;20071;-74
2023/07/20 10:09:46;;;;;;;3.40;0.40;;;;;;;;;;5086931;28;20044;-74
2023/07/20 10:12:17;;;;;;;0.85;0.30;;;;;;;;;;5087759;28;20040;-74
2023/07/20 10:15:04;;;;;;;0.40;0.30;;;;;;;;;;5087776;28;20428;-74
2023/07/20 10:17:39;;;;;;;0.65;0.30;;;;;;;;;;5087136;28;20056;-75
2023/07/20 10:20:12;;;;;;;1.15;0.77;;;;;;;;;;5088254;28;20070;-75
2023/07/20 10:22:45;;;;;;;0.20;0.13;;;;;;;;;;5087488;28;20044;-74
2023/07/20 10:25:17;;;;;;;2.97;0.30;;;;;;;;;;5087592;28;20103;-74
2023/07/20 10:27:58;;;;;;;0.32;0.20;;;;;;;;;;5085929;28;20051;-74
2023/07/20 10:30:34;;;;;;;0.47;0.30;;;;;;;;;;5086086;28;20050;-74
2023/07/20 10:33:05;;;;;;;0.40;0.17;;;;;;;;;;5087274;28;20052;-74
2023/07/20 10:35:56;;;;;;;1.13;0.40;;;;;;;;;;5087643;28;20138;-74
2023/07/20 10:38:47;;;;;;;2.63;0.30;;;;;;;;;;5087539;28;20486;-74
2023/07/20 10:41:21;;;;;;;2.78;1.90;;;;;;;;;;5067310;28;20420;-74
2023/07/20 10:43:57;;;;;;;1.27;0.32;;;;;;;;;;5065959;28;20064;-74
2023/07/20 10:46:40;;;;;;;0.65;0.30;;;;;;;;;;5066526;28;20048;-74
2023/07/20 10:49:11;;;;;;;10.35;2.92;;;;;;;;;;5065795;28;20051;-74
2023/07/20 10:51:48;;;;;;;1.10;0.65;;;;;;;;;;5066808;28;20043;-74
2023/07/20 10:54:19;;;;;;;0.20;0.20;;;;;;;;;;5067411;28;20045;-74
2023/07/20 10:56:51;;;;;;;0.20;0.20;;;;;;;;;;5066711;28;20044;-77
2023/07/20 10:59:38;;;;;;;1.90;0.40;;;;;;;;;;5066188;28;20055;-74
2023/07/20 11:02:10;;;;;;;1.50;0.30;;;;;;;;;;5066450;28;20056;-75
2023/07/20 11:04:46;;;;;;;0.20;0.20;;;;;;;;;;5066326;28;20052;-75
2023/07/20 11:07:37;;;;;;;2.40;0.32;;;;;;;;;;5066125;28;20032;-75
2023/07/20 11:10:18;;;;;;;4.72;0.70;;;;;;;;;;5066838;28;20041;-75
2023/07/20 11:13:34;;;;;;;3.30;0.60;;;;;;;;;;5066212;28;20525;-74
2023/07/20 11:16:05;;;;;;;1.95;0.70;;;;;;;;;;5064093;28;20064;-75
2023/07/20 11:18:39;;;;;;;3.95;0.50;;;;;;;;;;5065997;28;20059;-75
2023/07/20 11:21:11;;;;;;;4.55;0.60;;;;;;;;;;5065841;28;20049;-76
2023/07/20 11:23:45;;;;;;;2.33;0.35;;;;;;;;;;5065652;28;20412;-75
2023/07/20 11:26:16;;;;;;;0.63;0.35;;;;;;;;;;5066184;28;20055;-74
2023/07/20 11:28:52;;;;;;;1.10;0.38;;;;;;;;;;5066431;28;20497;-76
2023/07/20 11:31:22;;;;;;;1.52;0.40;;;;;;;;;;5065877;28;20060;-75
2023/07/20 11:33:53;;;;;;;3.72;0.32;;;;;;;;;;5063828;28;20526;-75
2023/07/20 11:36:46;;;;;;;4.25;0.50;;;;;;;;;;5062598;28;20075;-75
2023/07/20 11:39:21;;;;;;;0.57;0.22;;;;;;;;;;5063828;28;20048;-75
2023/07/20 11:41:58;;;;;;;19.63;1.27;;;;;;;;;;5063963;28;20044;-75
2023/07/20 11:44:30;;;;;;;2.42;0.38;;;;;;;;;;5064293;28;20079;-75
2023/07/20 11:47:07;;;;;;;0.63;0.30;;;;;;;;;;5064233;28;20043;-76
2023/07/20 11:49:43;;;;;;;12.10;3.80;;;;;;;;;;5065629;28;20055;-75
2023/07/20 11:52:17;;;;;;;3.50;1.50;;;;;;;;;;5065453;28;20518;-75
2023/07/20 11:54:49;;;;;;;2.45;0.60;;;;;;;;;;5063397;28;20971;-75
2023/07/20 11:57:21;;;;;;;2.83;0.73;;;;;;;;;;5065363;28;20404;-75
2023/07/20 11:59:58;;;;;;;3.40;0.63;;;;;;;;;;5065727;28;20041;-75
2023/07/20 12:02:29;;;;;;;3.42;1.05;;;;;;;;;;5065899;28;20052;-75
2023/07/20 12:05:00;;;;;;;9.88;2.03;;;;;;;;;;5065594;28;20415;-75
2023/07/20 12:07:36;;;;;;;4.97;0.90;;;;;;;;;;5063605;28;20499;-75
2023/07/20 12:10:10;;;;;;;4.68;1.90;;;;;;;;;;5065256;28;20775;-75
2023/07/20 12:12:45;;;;;;;7.13;1.10;;;;;;;;;;5065157;28;20055;-75
2023/07/20 12:15:22;;;;;;;12.70;1.73;;;;;;;;;;5079762;28;20068;-76
2023/07/20 12:17:55;;;;;;;3.88;1.00;;;;;;;;;;5064903;28;20045;-76
2023/07/20 12:20:29;;;;;;;9.15;3.42;;;;;;;;;;5065048;28;20048;-79
2023/07/20 12:23:13;;;;;;;3.95;1.80;;;;;;;;;;5062618;28;20527;-76
2023/07/20 12:25:47;;;;;;;2.60;0.90;;;;;;;;;;5064809;28;20040;-75
2023/07/20 12:28:20;;;;;;;2.58;0.60;;;;;;;;;;5064997;28;20049;-75
2023/07/20 12:30:56;;;;;;;1.90;0.45;;;;;;;;;;5065020;28;20044;-76
2023/07/20 12:33:26;;;;;;;3.38;1.00;;;;;;;;;;5064486;28;20044;-76
2023/07/20 12:35:58;;;;;;;3.05;0.65;;;;;;;;;;5064855;28;20510;-75
2023/07/20 12:38:31;;;;;;;1.38;0.70;;;;;;;;;;5064877;28;20526;-76
2023/07/20 12:41:04;;;;;;;1.23;0.73;;;;;;;;;;5064206;28;20051;-77
2023/07/20 12:43:34;;;;;;;3.90;1.75;;;;;;;;;;5064318;28;20060;-76
2023/07/20 12:46:05;;;;;;;1.70;0.50;;;;;;;;;;5065017;28;20053;-76
2023/07/20 12:48:37;;;;;;;3.20;0.80;;;;;;;;;;5065047;28;20061;-76
2023/07/20 12:51:10;;;;;;;1.98;0.73;;;;;;;;;;5064818;28;20056;-76
2023/07/20 12:53:40;;;;;;;24.67;1.52;;;;;;;;;;5064176;28;20063;-76
2023/07/20 12:56:10;;;;;;;10.25;2.05;;;;;;;;;;5065464;28;20118;-76
2023/07/20 12:58:44;;;;;;;2.10;0.40;;;;;;;;;;5063195;28;20139;-76
2023/07/20 13:01:15;;;;;;;1.17;0.80;;;;;;;;;;5063016;28;20072;-76
2023/07/20 13:03:46;;;;;;;1.15;0.70;;;;;;;;;;5064783;28;20388;-76
2023/07/20 13:06:19;;;;;;;9.82;1.20;;;;;;;;;;5064935;28;20048;-76
2023/07/20 13:08:55;;;;;;;2.92;1.10;;;;;;;;;;5064404;28;20048;-75
2023/07/20 13:11:26;;;;;;;5.60;1.33;;;;;;;;;;5064679;28;20415;-76
2023/07/20 13:13:56;;;;;;;3.03;1.30;;;;;;;;;;5064497;28;20423;-76
2023/07/20 13:16:30;;;;;;;6.90;1.20;;;;;;;;;;5064734;28;20051;-76
2023/07/20 13:19:00;;;;;;;1.45;1.10;;;;;;;;;;5064433;28;20045;-76
2023/07/20 13:21:31;;;;;;;5.32;1.73;;;;;;;;;;5064803;28;20041;-76
2023/07/20 13:24:03;;;;;;;4.90;1.08;;;;;;;;;;5064828;28;20048;-77
2023/07/20 13:26:34;;;;;;;1.48;0.60;;;;;;;;;;5064277;28;20064;-77
2023/07/20 13:29:04;;;;;;;7.60;2.63;;;;;;;;;;5064104;28;20052;-76
2023/07/20 13:31:35;;;;;;;5.35;0.77;;;;;;;;;;5064457;28;20052;-76
2023/07/20 13:34:09;;;;;;;1.13;0.60;;;;;;;;;;5063205;28;20052;-76
2023/07/20 13:36:40;;;;;;;1.45;0.70;;;;;;;;;;5064545;28;20052;-77
2023/07/20 13:39:12;;;;;;;2.83;0.75;;;;;;;;;;5063712;28;20079;-76
2023/07/20 13:41:42;;;;;;;2.45;0.75;;;;;;;;;;5064737;28;20051;-76
2023/07/20 13:44:13;;;;;;;1.40;1.00;;;;;;;;;;5064401;28;20056;-76
2023/07/20 13:46:45;;;;;;;3.95;0.70;;;;;;;;;;5066058;28;20071;-76
2023/07/20 13:49:16;;;;;;;5.55;1.00;;;;;;;;;;5067907;28;20044;-76
2023/07/20 13:51:52;;;;;;;2.60;0.38;;;;;;;;;;5067844;28;20384;-77
2023/07/20 13:54:26;;;;;;;11.40;1.00;;;;;;;;;;5067901;28;20055;-76
2023/07/20 13:56:56;;;;;;;2.47;0.50;;;;;;;;;;5067627;28;20057;-76
2023/07/20 13:59:26;;;;;;;0.35;0.35;;;;;;;;;;5068041;28;20049;-77
2023/07/20 14:01:56;;;;;;;2.25;0.50;;;;;;;;;;5067314;28;20053;-74
2023/07/20 14:04:30;;;;;;;2.17;0.65;;;;;;;;;;5067585;28;20049;-74
2023/07/20 14:07:03;;;;;;;4.40;0.77;;;;;;;;;;5067578;28;20036;-74
2023/07/20 14:09:33;;;;;;;5.18;0.82;;;;;;;;;;5067750;28;20049;-74
2023/07/20 14:12:03;;;;;;;0.40;0.40;;;;;;;;;;5067235;28;20041;-74
2023/07/20 14:14:37;;;;;;;2.95;0.40;;;;;;;;;;5067280;28;20048;-74
2023/07/20 14:17:07;;;;;;;2.15;0.57;;;;;;;;;;5067023;28;20055;-73
2023/07/20 14:19:38;;;;;;;1.15;0.63;;;;;;;;;;5067264;28;20052;-72
2023/07/20 14:22:09;;;;;;;1.38;0.63;;;;;;;;;;5067371;28;20037;-77
2023/07/20 14:24:40;;;;;;;3.50;0.70;;;;;;;;;;5067683;28;20055;-76
2023/07/20 14:27:11;;;;;;;20.10;3.55;;;;;;;;;;5066714;28;20507;-75
2023/07/20 14:29:42;;;;;;;0.90;0.47;;;;;;;;;;5065521;28;20052;-77
2023/07/20 14:32:12;;;;;;;0.38;0.38;;;;;;;;;;5066441;28;20049;-74
2023/07/20 14:34:43;;;;;;;29.40;3.28;;;;;;;;;;5066908;28;20071;-75
2023/07/20 14:37:16;;;;;;;0.68;0.50;;;;;;;;;;5067079;28;20051;-74
2023/07/20 14:39:46;;;;;;;0.40;0.40;;;;;;;;;;5066561;28;20048;-76
2023/07/20 14:42:17;;;;;;;2.75;0.65;;;;;;;;;;5066895;28;20419;-76
2023/07/20 14:44:51;;;;;;;12.63;1.58;;;;;;;;;;5066813;28;20407;-74
2023/07/20 14:47:22;;;;;;;0.63;0.40;;;;;;;;;;5066778;28;20407;-73
2023/07/20 14:49:53;;;;;;;1.38;0.45;;;;;;;;;;5066563;28;20055;-73
2023/07/20 14:52:24;;;;;;;2.15;0.50;;;;;;;;;;5066690;28;20055;-76
2023/07/20 14:54:57;;;;;;;0.30;0.30;;;;;;;;;;5066493;28;20048;-76
2023/07/20 14:57:28;;;;;;;1.63;0.40;;;;;;;;;;5067010;28;20052;-76
2023/07/20 14:59:59;;;;;;;0.77;0.40;;;;;;;;;;5066307;28;20056;-76
2023/07/20 15:02:29;;;;;;;1.67;0.40;;;;;;;;;;5066775;28;20083;-78
2023/07/20 15:05:00;;;;;;;1.20;0.38;;;;;;;;;;5066294;28;20049;-77
2023/07/20 15:07:30;;;;;;;2.08;0.57;;;;;;;;;;5066216;28;20832;-75
2023/07/20 15:10:02;;;;;;;4.13;0.65;;;;;;;;;;5066819;28;20056;-76
2023/07/20 15:12:33;;;;;;;3.90;0.55;;;;;;;;;;5066681;28;20878;-75
2023/07/20 15:15:29;;;;;;;4.07;0.60;;;;;;;;;;5065010;28;20048;-76
2023/07/20 15:18:00;;;;;;;1.88;0.77;;;;;;;;;;5064433;28;20057;-73
2023/07/20 15:20:31;;;;;;;3.72;0.73;;;;;;;;;;5066256;28;20052;-73
2023/07/20 15:23:03;;;;;;;0.93;0.40;;;;;;;;;;5067315;28;20049;-74